Time;durP1;ratioP1;P1;durP2;ratioP2;P2;SDS_P1;SDS_P2;PMS_P1;PMS_P2;Temp;Humidity;BMP_temperature;BMP_pressure;BME280_temperature;BME280_humidity;BME280_pressure;Samples;Min_cycle;Max_cycle;Signal;HPM_P1;HPM_P2
2023/11/13 00:01:58;;;;;;;7.00;5.78;;;;;;;18.99;64.40;100706.91;5047251;28;20107;-33
2023/11/13 00:04:24;;;;;;;8.02;6.22;;;;;;;18.95;64.36;100697.63;5030880;28;20390;-34
2023/11/13 00:06:49;;;;;;;6.57;5.63;;;;;;;18.94;64.75;100694.03;5043645;28;20029;-33
2023/11/13 00:09:14;;;;;;;6.97;5.68;;;;;;;18.92;64.70;100680.59;5031472;28;20025;-32
2023/11/13 00:11:40;;;;;;;6.75;5.47;;;;;;;18.90;64.70;100660.00;5039874;28;20111;-35
2023/11/13 00:14:06;;;;;;;6.18;5.57;;;;;;;18.88;64.70;100660.28;5033502;28;20017;-34
2023/11/13 00:16:31;;;;;;;6.85;6.07;;;;;;;18.86;64.67;100667.97;5036078;28;20059;-32
2023/11/13 00:18:57;;;;;;;6.25;5.50;;;;;;;18.84;64.50;100672.94;5047859;28;20694;-33
2023/11/13 00:21:22;;;;;;;6.78;5.63;;;;;;;18.82;64.80;100675.16;5046284;28;20024;-34
2023/11/13 00:23:48;;;;;;;8.07;5.97;;;;;;;18.80;65.05;100677.38;5061019;28;20471;-32
2023/11/13 00:26:13;;;;;;;6.53;5.32;;;;;;;18.79;64.79;100683.16;5049378;28;20036;-33
2023/11/13 00:28:38;;;;;;;6.18;5.32;;;;;;;18.77;64.87;100672.44;5050057;28;20031;-32
2023/11/13 00:31:04;;;;;;;5.75;5.22;;;;;;;18.75;64.85;100660.94;5045550;28;20295;-33
2023/11/13 00:33:29;;;;;;;7.60;5.70;;;;;;;18.73;65.20;100654.91;5043975;28;20052;-34
2023/11/13 00:35:55;;;;;;;6.32;5.40;;;;;;;18.71;64.91;100652.44;5033233;28;20043;-32
2023/11/13 00:38:20;;;;;;;6.05;5.45;;;;;;;18.68;65.14;100653.00;5033784;28;20029;-32
2023/11/13 00:40:47;;;;;;;5.85;5.10;;;;;;;18.67;65.18;100645.88;5037571;28;20029;-34
2023/11/13 00:43:12;;;;;;;6.45;5.45;;;;;;;18.66;65.10;100644.22;5041928;28;20111;-34
2023/11/13 00:45:38;;;;;;;9.85;5.30;;;;;;;18.67;65.05;100645.06;5044713;28;20115;-32
2023/11/13 00:48:04;;;;;;;6.45;5.30;;;;;;;18.65;65.25;100631.63;5041273;28;20101;-34
2023/11/13 00:50:29;;;;;;;5.47;4.95;;;;;;;18.64;65.24;100632.75;5037412;28;20033;-33
2023/11/13 00:52:54;;;;;;;7.30;5.00;;;;;;;18.64;65.02;100631.91;5044337;28;20056;-32
2023/11/13 00:55:20;;;;;;;6.43;5.10;;;;;;;18.62;65.04;100626.72;5049338;28;20576;-33
2023/11/13 00:57:45;;;;;;;7.75;5.53;;;;;;;18.62;65.24;100632.19;5039341;28;20439;-34
2023/11/13 01:00:14;;;;;;;5.65;4.90;;;;;;;18.60;65.04;100621.50;5038027;28;20029;-34
2023/11/13 01:02:40;;;;;;;7.50;4.78;;;;;;;18.59;65.51;100608.09;5044999;28;20044;-33
2023/11/13 01:05:06;;;;;;;6.93;5.05;;;;;;;18.58;65.09;100607.25;5043161;28;20037;-35
2023/11/13 01:07:31;;;;;;;6.80;4.78;;;;;;;18.56;65.25;100614.94;5042849;28;20016;-34
2023/11/13 01:09:57;;;;;;;6.43;5.25;;;;;;;18.53;65.26;100609.22;5060197;28;20023;-34
2023/11/13 01:12:23;;;;;;;6.72;5.25;;;;;;;18.54;65.27;100621.81;5061481;28;20032;-33
2023/11/13 01:14:49;;;;;;;7.05;4.97;;;;;;;18.52;65.24;100624.06;5044102;28;20025;-33
2023/11/13 01:17:15;;;;;;;6.65;4.70;;;;;;;18.51;65.29;100633.38;5039653;28;20430;-33
2023/11/13 01:19:40;;;;;;;5.10;4.60;;;;;;;18.50;65.49;100637.22;5042179;28;20064;-34
2023/11/13 01:22:06;;;;;;;6.00;4.95;;;;;;;18.48;65.39;100634.78;5054784;28;20537;-33
2023/11/13 01:24:31;;;;;;;5.55;4.50;;;;;;;18.48;65.37;100642.16;5061729;28;20032;-33
2023/11/13 01:26:56;;;;;;;6.75;4.60;;;;;;;18.47;65.24;100640.53;5057708;28;20029;-32
2023/11/13 01:29:22;;;;;;;6.43;4.65;;;;;;;18.44;65.62;100634.53;5052259;28;20903;-34
2023/11/13 01:31:47;;;;;;;4.88;4.38;;;;;;;18.43;65.38;100627.38;5046360;28;20028;-34
2023/11/13 01:34:13;;;;;;;6.32;4.35;;;;;;;18.42;65.47;100620.25;5050341;28;20076;-32
2023/11/13 01:36:39;;;;;;;4.85;4.32;;;;;;;18.42;65.60;100624.94;5057139;28;20029;-33
2023/11/13 01:39:07;;;;;;;5.45;4.57;;;;;;;18.40;65.72;100627.94;5045002;28;20083;-34
2023/11/13 01:41:37;;;;;;;8.02;4.43;;;;;;;18.40;65.54;100630.69;5058344;28;20031;-33
2023/11/13 01:44:03;;;;;;;6.22;4.32;;;;;;;18.39;65.74;100625.50;5054166;28;20032;-34
2023/11/13 01:46:30;;;;;;;7.60;5.03;;;;;;;18.37;65.73;100623.03;5053576;28;20585;-33
2023/11/13 01:48:56;;;;;;;5.22;4.50;;;;;;;18.36;65.72;100629.63;5051804;28;20296;-33
2023/11/13 01:51:23;;;;;;;7.00;4.28;;;;;;;18.36;65.62;100626.88;5046771;28;20107;-33
2023/11/13 01:53:49;;;;;;;6.05;4.50;;;;;;;18.34;65.89;100612.63;5048498;28;20465;-35
2023/11/13 01:56:15;;;;;;;5.68;4.43;;;;;;;18.33;65.93;100600.03;5043986;28;20051;-34
2023/11/13 01:58:40;;;;;;;6.43;4.78;;;;;;;18.32;65.91;100600.28;5041089;28;20033;-33
2023/11/13 02:01:06;;;;;;;6.15;4.88;;;;;;;18.32;66.16;100603.88;5054627;28;20146;-34
2023/11/13 02:03:33;;;;;;;9.20;4.80;;;;;;;18.31;65.97;100593.16;5058660;28;20047;-33
2023/11/13 02:06:00;;;;;;;4.32;3.90;;;;;;;18.30;66.23;100597.03;5088727;28;20012;-34
2023/11/13 02:08:26;;;;;;;6.13;4.50;;;;;;;18.31;65.97;100587.69;5056263;28;20491;-33
2023/11/13 02:10:51;;;;;;;5.28;4.15;;;;;;;18.30;65.97;100594.28;5077665;28;20063;-32
2023/11/13 02:13:16;;;;;;;5.20;4.10;;;;;;;18.28;66.09;100583.59;5045372;28;20030;-32
2023/11/13 02:15:42;;;;;;;4.82;3.88;;;;;;;18.28;66.15;100592.66;5050748;28;20438;-33
2023/11/13 02:18:07;;;;;;;4.85;4.13;;;;;;;18.27;66.08;100581.94;5046156;28;20480;-32
2023/11/13 02:20:34;;;;;;;6.32;4.47;;;;;;;18.26;66.32;100567.41;5044134;28;20024;-33
2023/11/13 02:23:00;;;;;;;7.00;4.38;;;;;;;18.26;66.03;100566.63;5060006;28;20020;-32
2023/11/13 02:25:26;;;;;;;7.13;4.45;;;;;;;18.25;66.22;100563.03;5039084;28;20064;-32
2023/11/13 02:27:55;;;;;;;4.90;4.13;;;;;;;18.25;66.22;100560.28;5053011;28;20076;-34
2023/11/13 02:30:21;;;;;;;5.65;4.32;;;;;;;18.25;66.17;100548.50;5046994;28;20128;-34
2023/11/13 02:32:48;;;;;;;4.80;3.70;;;;;;;18.25;66.34;100534.78;5050935;28;20139;-32
2023/11/13 02:35:13;;;;;;;4.95;4.43;;;;;;;18.25;66.24;100534.78;5034848;28;20037;-33
2023/11/13 02:37:40;;;;;;;5.18;4.00;;;;;;;18.24;66.48;100535.88;5057453;28;20043;-32
2023/11/13 02:40:09;;;;;;;6.72;4.15;;;;;;;18.23;66.16;100542.47;5056337;28;20109;-32
2023/11/13 02:42:35;;;;;;;6.57;3.85;;;;;;;18.22;66.42;100546.31;5058795;28;20028;-34
2023/11/13 02:45:01;;;;;;;5.60;4.13;;;;;;;18.21;66.50;100559.22;5053143;28;20351;-33
2023/11/13 02:47:26;;;;;;;10.88;4.10;;;;;;;18.21;66.69;100566.63;5049406;28;20062;-35
2023/11/13 02:49:51;;;;;;;5.53;3.97;;;;;;;18.20;66.63;100574.03;5043250;28;20025;-32
2023/11/13 02:52:17;;;;;;;6.32;3.70;;;;;;;18.19;66.77;100577.88;5041368;28;20087;-34
2023/11/13 02:54:43;;;;;;;4.47;3.83;;;;;;;18.20;66.62;100584.22;5034574;28;20485;-33
2023/11/13 02:57:08;;;;;;;4.93;3.80;;;;;;;18.19;66.81;100579.81;5034674;28;20097;-35
2023/11/13 02:59:33;;;;;;;6.65;3.97;;;;;;;18.19;67.06;100579.81;5051868;28;20408;-34
2023/11/13 03:01:59;;;;;;;9.25;3.83;;;;;;;18.18;67.22;100580.91;5034615;28;20035;-33
2023/11/13 03:04:24;;;;;;;5.57;4.10;;;;;;;18.16;66.64;100592.19;5041897;28;20504;-34
2023/11/13 03:06:50;;;;;;;4.32;3.47;;;;;;;18.17;67.11;100598.47;5053687;28;20032;-33
2023/11/13 03:09:16;;;;;;;5.90;3.80;;;;;;;18.15;66.93;100603.41;5036689;28;20021;-34
2023/11/13 03:11:41;;;;;;;5.85;4.00;;;;;;;18.14;67.14;100588.09;5052561;28;20528;-34
2023/11/13 03:14:06;;;;;;;6.57;4.00;;;;;;;18.14;67.03;100594.38;5079704;28;20115;-33
2023/11/13 03:16:32;;;;;;;6.75;3.45;;;;;;;18.14;67.13;100588.91;5048538;28;20100;-33
2023/11/13 03:18:57;;;;;;;5.28;3.50;;;;;;;18.14;67.50;100585.34;5046691;28;20053;-32
2023/11/13 03:21:23;;;;;;;6.45;3.85;;;;;;;18.13;67.36;100568.06;5057620;28;20520;-34
2023/11/13 03:23:49;;;;;;;4.93;3.55;;;;;;;18.12;67.16;100561.75;5040414;28;20043;-32
2023/11/13 03:26:17;;;;;;;6.22;3.70;;;;;;;18.11;67.16;100562.84;5043008;28;20123;-34
2023/11/13 03:28:43;;;;;;;4.57;3.63;;;;;;;18.11;67.38;100560.13;5029177;28;20544;-34
2023/11/13 03:31:09;;;;;;;6.35;3.95;;;;;;;18.10;67.34;100565.91;5046469;28;20028;-33
2023/11/13 03:33:35;;;;;;;4.63;3.90;;;;;;;18.09;67.23;100567.81;5040331;28;20505;-33
2023/11/13 03:36:00;;;;;;;4.75;3.63;;;;;;;18.08;67.52;100570.84;5042170;28;20020;-32
2023/11/13 03:38:26;;;;;;;6.38;3.50;;;;;;;18.08;67.29;100565.34;5056261;28;20112;-33
2023/11/13 03:40:51;;;;;;;4.40;3.60;;;;;;;18.08;67.35;100568.91;5034447;28;20440;-33
2023/11/13 03:43:17;;;;;;;4.57;3.75;;;;;;;18.06;67.29;100565.63;5021473;28;20035;-33
2023/11/13 03:45:43;;;;;;;5.07;3.55;;;;;;;18.06;67.46;100560.16;5028543;28;20024;-33
2023/11/13 03:48:09;;;;;;;6.05;3.33;;;;;;;18.07;67.44;100558.22;5032634;28;20092;-32
2023/11/13 03:50:34;;;;;;;4.43;3.60;;;;;;;18.06;67.38;100546.44;5035961;28;20507;-32
2023/11/13 03:52:59;;;;;;;4.05;3.38;;;;;;;18.05;67.39;100539.31;5043832;28;20489;-32
2023/11/13 03:55:26;;;;;;;3.80;3.30;;;;;;;18.05;67.42;100527.50;5035897;28;20116;-33
2023/11/13 03:57:52;;;;;;;3.78;3.08;;;;;;;18.04;67.35;100521.22;5033526;28;20257;-34
2023/11/13 04:00:19;;;;;;;4.50;3.28;;;;;;;18.03;67.35;100513.28;5038023;28;20026;-33
2023/11/13 04:02:47;;;;;;;5.07;3.47;;;;;;;18.03;67.41;100502.31;5049924;28;20546;-33
2023/11/13 04:05:12;;;;;;;4.60;3.60;;;;;;;18.02;67.53;100498.75;5038408;28;20165;-32
2023/11/13 04:07:38;;;;;;;6.47;3.47;;;;;;;18.01;67.44;100480.63;5042291;28;20504;-32
2023/11/13 04:10:03;;;;;;;4.15;3.28;;;;;;;18.01;67.39;100469.69;5055843;28;20051;-33
2023/11/13 04:12:29;;;;;;;5.60;3.63;;;;;;;18.01;67.56;100457.91;5048446;28;20033;-34
2023/11/13 04:14:54;;;;;;;5.07;3.33;;;;;;;18.00;67.63;100446.13;5041588;28;20140;-33
2023/11/13 04:17:20;;;;;;;5.28;3.67;;;;;;;17.99;67.74;100443.66;5051041;28;20496;-31
2023/11/13 04:19:45;;;;;;;4.15;3.35;;;;;;;18.00;67.48;100446.13;5040417;28;20029;-32
2023/11/13 04:22:10;;;;;;;4.00;3.30;;;;;;;18.00;67.63;100442.53;5051170;28;20030;-32
2023/11/13 04:24:36;;;;;;;4.10;3.70;;;;;;;17.98;67.68;100423.66;5048116;28;20059;-32
2023/11/13 04:27:01;;;;;;;6.00;3.40;;;;;;;17.98;67.71;100437.34;5039595;28;20036;-32
2023/11/13 04:29:29;;;;;;;4.85;3.45;;;;;;;17.99;67.58;100449.13;5057653;28;20044;-33
2023/11/13 04:31:54;;;;;;;4.72;3.33;;;;;;;17.99;67.82;100449.13;5059611;28;20024;-33
2023/11/13 04:34:20;;;;;;;4.53;3.05;;;;;;;17.98;67.96;100442.00;5054953;28;20375;-34
2023/11/13 04:36:45;;;;;;;4.55;3.30;;;;;;;17.98;67.64;100447.50;5044938;28;20087;-31
2023/11/13 04:39:12;;;;;;;4.93;3.35;;;;;;;17.95;67.76;100444.22;5053936;28;20017;-33
2023/11/13 04:41:37;;;;;;;7.50;3.80;;;;;;;17.95;67.97;100433.28;5051281;28;20583;-33
2023/11/13 04:44:04;;;;;;;4.25;3.28;;;;;;;17.95;67.95;100433.28;5043965;28;20139;-32
2023/11/13 04:46:29;;;;;;;3.97;3.20;;;;;;;17.95;68.15;100436.00;5049026;28;20041;-32
2023/11/13 04:48:54;;;;;;;4.90;3.40;;;;;;;17.95;67.96;100432.44;5041187;28;20516;-33
2023/11/13 04:51:20;;;;;;;6.10;3.80;;;;;;;17.92;68.30;100414.59;5066236;28;20055;-33
2023/11/13 04:53:45;;;;;;;5.25;3.50;;;;;;;17.93;68.14;100416.25;5060532;28;20035;-34
2023/11/13 04:56:11;;;;;;;3.97;3.20;;;;;;;17.94;68.23;100417.91;5055860;28;20461;-33
2023/11/13 04:58:38;;;;;;;4.10;3.28;;;;;;;17.93;68.13;100418.19;5048864;28;20123;-33
2023/11/13 05:01:03;;;;;;;5.25;3.60;;;;;;;17.93;68.49;100423.66;5033820;28;20079;-32
2023/11/13 05:03:31;;;;;;;4.45;3.42;;;;;;;17.92;68.35;100417.34;5063821;28;20032;-32
2023/11/13 05:05:57;;;;;;;3.83;3.25;;;;;;;17.92;68.60;100420.09;5050655;28;20031;-34
2023/11/13 05:08:23;;;;;;;4.93;3.78;;;;;;;17.93;68.50;100423.66;5048900;28;20028;-32
2023/11/13 05:10:49;;;;;;;7.97;3.13;;;;;;;17.92;68.75;100408.31;5043118;28;20026;-32
2023/11/13 05:13:15;;;;;;;4.90;3.42;;;;;;;17.92;68.72;100411.88;5051260;28;20506;-34
2023/11/13 05:15:41;;;;;;;7.13;3.40;;;;;;;17.92;68.61;100411.88;5049455;28;20452;-33
2023/11/13 05:18:07;;;;;;;6.38;3.78;;;;;;;17.92;68.84;100420.09;5061201;28;20476;-33
2023/11/13 05:20:39;;;;;;;5.57;3.50;;;;;;;17.91;68.79;100402.00;5055505;28;20581;-33
2023/11/13 05:23:06;;;;;;;4.05;3.22;;;;;;;17.91;69.18;100395.69;5055617;28;20020;-32
2023/11/13 05:25:32;;;;;;;7.07;3.80;;;;;;;17.92;69.08;100402.84;5051331;28;20029;-32
2023/11/13 05:27:57;;;;;;;4.43;3.50;;;;;;;17.90;69.16;100389.41;5055729;28;20021;-32
2023/11/13 05:30:24;;;;;;;7.50;4.00;;;;;;;17.91;69.19;100392.97;5047076;28;20108;-32
2023/11/13 05:32:49;;;;;;;5.45;3.47;;;;;;;17.91;69.20;100395.69;5044561;28;20465;-33
2023/11/13 05:35:15;;;;;;;5.97;4.30;;;;;;;17.91;69.39;100388.28;5055640;28;20375;-32
2023/11/13 05:37:41;;;;;;;6.35;3.60;;;;;;;17.92;69.62;100397.34;5058004;28;20037;-32
2023/11/13 05:40:07;;;;;;;7.97;4.40;;;;;;;17.90;69.44;100372.97;5048678;28;20037;-32
2023/11/13 05:42:35;;;;;;;8.98;4.10;;;;;;;17.90;69.72;100369.38;5057005;28;20112;-32
2023/11/13 05:45:00;;;;;;;6.63;4.30;;;;;;;17.91;69.61;100368.28;5050528;28;20610;-32
2023/11/13 05:47:26;;;;;;;5.75;4.40;;;;;;;17.90;69.73;100362.00;5045435;28;20131;-32
2023/11/13 05:49:52;;;;;;;5.68;3.85;;;;;;;17.89;69.49;100363.09;5051835;28;20154;-32
2023/11/13 05:52:18;;;;;;;7.63;4.20;;;;;;;17.90;69.70;100363.91;5056803;28;20119;-32
2023/11/13 05:54:43;;;;;;;8.35;4.50;;;;;;;17.90;69.87;100355.69;5061506;28;20024;-32
2023/11/13 05:57:09;;;;;;;5.88;4.40;;;;;;;17.89;69.90;100365.00;5087605;28;20087;-32
2023/11/13 05:59:34;;;;;;;6.60;4.55;;;;;;;17.89;69.67;100359.53;5046870;28;20039;-32
2023/11/13 06:02:00;;;;;;;7.05;4.28;;;;;;;17.88;69.84;100361.47;5048224;28;20025;-32
2023/11/13 06:04:25;;;;;;;5.60;4.03;;;;;;;17.87;69.85;100351.59;5050419;28;20091;-32
2023/11/13 06:06:51;;;;;;;5.53;3.88;;;;;;;17.87;69.87;100351.59;5058280;28;20366;-33
2023/11/13 06:09:16;;;;;;;6.38;4.07;;;;;;;17.88;69.99;100344.19;5043558;28;20056;-33
2023/11/13 06:11:42;;;;;;;8.30;4.43;;;;;;;17.86;70.02;100339.00;5033327;28;20025;-34
2023/11/13 06:14:08;;;;;;;6.68;4.20;;;;;;;17.87;70.02;100350.78;5035230;28;20545;-33
2023/11/13 06:16:33;;;;;;;5.65;4.07;;;;;;;17.88;69.92;100346.91;5050844;28;20433;-32
2023/11/13 06:18:59;;;;;;;7.22;3.78;;;;;;;17.86;70.05;100340.94;5045222;28;20067;-32
2023/11/13 06:21:24;;;;;;;5.38;4.00;;;;;;;17.86;69.95;100343.66;5048591;28;20192;-33
2023/11/13 06:23:50;;;;;;;6.75;4.50;;;;;;;17.86;70.13;100329.97;5034611;28;20036;-33
2023/11/13 06:26:15;;;;;;;5.72;4.35;;;;;;;17.86;70.05;100327.22;5042877;28;20144;-36
2023/11/13 06:28:41;;;;;;;7.97;4.00;;;;;;;17.85;70.08;100331.88;5035292;28;20029;-33
2023/11/13 06:31:08;;;;;;;5.22;4.10;;;;;;;17.84;70.24;100323.94;5044077;28;20387;-32
2023/11/13 06:33:36;;;;;;;6.13;4.30;;;;;;;17.84;70.07;100315.72;5032795;28;20037;-32
2023/11/13 06:36:03;;;;;;;6.15;3.97;;;;;;;17.85;70.08;100317.34;5041896;28;20026;-33
2023/11/13 06:38:28;;;;;;;6.65;3.90;;;;;;;17.85;70.43;100320.91;5041869;28;20090;-33
2023/11/13 06:40:55;;;;;;;4.65;4.15;;;;;;;17.85;70.28;100320.09;5043384;28;20653;-32
2023/11/13 06:43:24;;;;;;;6.22;3.95;;;;;;;17.85;70.18;100317.34;5039102;28;20501;-34
2023/11/13 06:45:49;;;;;;;6.03;3.80;;;;;;;17.86;70.11;100305.28;5041575;28;20017;-32
2023/11/13 06:48:16;;;;;;;6.13;4.07;;;;;;;17.93;70.34;100298.34;5044485;28;20355;-32
2023/11/13 06:50:43;;;;;;;6.28;4.50;;;;;;;18.01;70.07;100296.91;5057108;28;20120;-32
2023/11/13 06:53:08;;;;;;;5.43;3.97;;;;;;;18.07;69.94;100293.03;5057825;28;20094;-32
2023/11/13 06:55:34;;;;;;;4.88;3.92;;;;;;;18.15;69.92;100291.59;5052231;28;20025;-32
2023/11/13 06:57:59;;;;;;;6.05;3.92;;;;;;;18.25;69.74;100290.66;5057506;28;20050;-32
2023/11/13 07:00:25;;;;;;;5.28;4.13;;;;;;;18.34;69.57;100277.13;5043992;28;20013;-32
2023/11/13 07:02:51;;;;;;;4.68;3.88;;;;;;;18.43;69.22;100267.94;5042780;28;20500;-33
2023/11/13 07:05:17;;;;;;;4.75;3.75;;;;;;;18.52;69.16;100265.34;5040913;28;20033;-32
2023/11/13 07:07:43;;;;;;;5.57;3.70;;;;;;;18.66;68.87;100261.88;5035692;28;20025;-33
2023/11/13 07:10:12;;;;;;;6.72;3.65;;;;;;;18.79;68.90;100272.13;5047006;28;20417;-33
2023/11/13 07:12:41;;;;;;;4.63;3.75;;;;;;;18.92;68.91;100268.69;5043052;28;20030;-33
2023/11/13 07:15:07;;;;;;;4.65;3.70;;;;;;;19.05;68.83;100267.13;5040089;28;20156;-33
2023/11/13 07:17:33;;;;;;;5.13;3.88;;;;;;;19.17;68.59;100268.63;5037432;28;20467;-32
2023/11/13 07:19:59;;;;;;;4.85;3.38;;;;;;;19.29;68.29;100266.22;5032932;28;20021;-33
2023/11/13 07:22:25;;;;;;;4.60;3.60;;;;;;;19.40;68.06;100266.88;5041127;28;20167;-33
2023/11/13 07:24:53;;;;;;;5.55;3.65;;;;;;;19.52;68.09;100271.88;5046777;28;20108;-32
2023/11/13 07:27:18;;;;;;;4.88;3.55;;;;;;;19.62;67.93;100257.16;5034712;28;20033;-34
2023/11/13 07:29:44;;;;;;;4.50;3.20;;;;;;;19.72;67.59;100256.97;5038741;28;20025;-31
2023/11/13 07:32:11;;;;;;;4.43;3.40;;;;;;;19.80;67.60;100249.97;5044234;28;20030;-31
2023/11/13 07:34:36;;;;;;;4.30;3.55;;;;;;;19.86;68.10;100246.03;5040822;28;20033;-32
2023/11/13 07:37:03;;;;;;;5.28;3.70;;;;;;;19.88;67.26;100241.84;5046426;28;20086;-33
2023/11/13 07:39:31;;;;;;;4.38;3.30;;;;;;;19.90;67.33;100233.28;5049558;28;20029;-33
2023/11/13 07:41:57;;;;;;;4.15;3.45;;;;;;;19.91;67.36;100225.88;5047895;28;20564;-33
2023/11/13 07:44:23;;;;;;;3.85;3.40;;;;;;;19.89;67.33;100220.69;5040021;28;20537;-33
2023/11/13 07:46:50;;;;;;;3.88;3.15;;;;;;;19.86;67.39;100213.84;5037949;28;20032;-33
2023/11/13 07:49:16;;;;;;;4.63;3.25;;;;;;;19.84;67.44;100216.09;5042093;28;20473;-33
2023/11/13 07:51:43;;;;;;;6.00;3.30;;;;;;;19.81;67.70;100215.84;5061729;28;20488;-33
2023/11/13 07:54:09;;;;;;;3.92;3.22;;;;;;;19.80;67.58;100204.00;5058075;28;20036;-33
2023/11/13 07:56:35;;;;;;;4.28;3.50;;;;;;;19.77;67.68;100204.63;5033571;28;20060;-33
2023/11/13 07:59:05;;;;;;;4.90;3.58;;;;;;;19.75;67.95;100195.06;5029191;28;20488;-32
2023/11/13 08:01:31;;;;;;;4.38;3.47;;;;;;;19.69;67.93;100189.69;5033160;28;20295;-34
2023/11/13 08:03:57;;;;;;;6.45;3.40;;;;;;;19.67;67.96;100169.09;5043352;28;20492;-32
2023/11/13 08:06:22;;;;;;;6.30;3.17;;;;;;;19.63;68.15;100170.81;5046230;28;20107;-33
2023/11/13 08:08:49;;;;;;;4.47;3.17;;;;;;;19.59;68.08;100156.06;5034490;28;20098;-33
2023/11/13 08:11:15;;;;;;;4.30;3.30;;;;;;;19.54;68.60;100157.78;5045161;28;20396;-33
2023/11/13 08:13:41;;;;;;;5.10;3.03;;;;;;;19.52;68.36;100159.19;5043042;28;20162;-33
2023/11/13 08:16:08;;;;;;;3.65;3.25;;;;;;;19.47;68.44;100151.88;5041483;28;20393;-32
2023/11/13 08:18:34;;;;;;;5.53;3.45;;;;;;;19.43;68.65;100136.28;5045998;28;20032;-33
2023/11/13 08:20:59;;;;;;;6.28;3.35;;;;;;;19.40;68.69;100121.22;5050356;28;20024;-35
2023/11/13 08:23:28;;;;;;;5.95;3.72;;;;;;;19.34;69.12;100101.28;5048484;28;20025;-33
2023/11/13 08:25:54;;;;;;;7.45;3.85;;;;;;;19.32;69.02;100099.94;5051910;28;20036;-33
2023/11/13 08:28:19;;;;;;;6.28;3.53;;;;;;;19.27;69.13;100098.09;5041412;28;20036;-34
2023/11/13 08:30:45;;;;;;;6.88;3.60;;;;;;;19.25;69.23;100094.84;5057596;28;20028;-32
2023/11/13 08:33:11;;;;;;;4.68;3.55;;;;;;;19.21;69.46;100083.66;5042122;28;20324;-35
2023/11/13 08:35:37;;;;;;;6.20;3.90;;;;;;;19.18;69.47;100078.78;5048895;28;20024;-33
2023/11/13 08:38:02;;;;;;;6.95;3.45;;;;;;;19.15;69.78;100090.34;5044834;28;20489;-33
2023/11/13 08:40:29;;;;;;;5.80;3.65;;;;;;;19.12;69.84;100090.97;5048201;28;20035;-33
2023/11/13 08:42:55;;;;;;;7.68;3.65;;;;;;;19.11;70.24;100078.34;5039656;28;20092;-33
2023/11/13 08:45:21;;;;;;;36.90;4.85;;;;;;;19.08;70.46;100071.53;5048839;28;20405;-33
2023/11/13 08:47:47;;;;;;;13.90;3.75;;;;;;;19.15;70.98;100064.81;5046723;28;20041;-33
2023/11/13 08:50:13;;;;;;;11.95;3.40;;;;;;;19.18;71.64;100051.31;5044092;28;20386;-31
2023/11/13 08:52:40;;;;;;;12.52;4.10;;;;;;;19.24;71.70;100044.59;5059366;28;20152;-32
2023/11/13 08:55:10;;;;;;;10.23;3.88;;;;;;;19.29;71.76;100045.59;5059809;28;20953;-33
2023/11/13 08:57:38;;;;;;;8.60;3.45;;;;;;;19.33;71.98;100030.94;5062869;28;20094;-33
2023/11/13 09:00:04;;;;;;;6.43;3.22;;;;;;;19.38;71.82;100039.09;5046423;28;20036;-33
2023/11/13 09:02:30;;;;;;;13.27;3.38;;;;;;;19.42;71.70;100030.25;5054338;28;20169;-33
2023/11/13 09:04:55;;;;;;;4.93;2.92;;;;;;;19.45;71.96;100016.72;5052139;28;20054;-34
2023/11/13 09:07:21;;;;;;;6.57;2.97;;;;;;;19.47;71.60;100005.41;5045105;28;20044;-33
2023/11/13 09:09:46;;;;;;;5.38;3.00;;;;;;;19.48;71.77;100005.09;5046162;28;20113;-32
2023/11/13 09:12:12;;;;;;;8.63;3.03;;;;;;;19.52;71.71;100010.78;5043141;27;20028;-33
2023/11/13 09:14:42;;;;;;;6.97;3.20;;;;;;;19.54;71.42;100014.06;5049871;28;20428;-32
2023/11/13 09:17:12;;;;;;;6.75;3.00;;;;;;;19.58;71.36;100004.06;5034781;28;20038;-32
2023/11/13 09:19:40;;;;;;;6.28;2.83;;;;;;;19.62;71.40;99969.34;5039856;28;20749;-32
2023/11/13 09:22:09;;;;;;;5.43;2.90;;;;;;;19.66;71.09;99972.31;5043074;28;20083;-32
2023/11/13 09:24:38;;;;;;;5.63;2.60;;;;;;;19.70;70.88;99973.28;5046851;28;20539;-33
2023/11/13 09:27:04;;;;;;;4.60;3.05;;;;;;;19.73;71.04;99961.69;5041459;28;20029;-33
2023/11/13 09:29:29;;;;;;;5.30;2.88;;;;;;;19.76;70.71;99958.31;5034457;28;20039;-34
2023/11/13 09:31:55;;;;;;;6.63;2.42;;;;;;;19.77;71.12;99943.44;5044025;28;20497;-34
2023/11/13 09:34:22;;;;;;;4.00;2.33;;;;;;;19.78;71.39;99927.75;5040763;28;20021;-33
2023/11/13 09:36:48;;;;;;;6.20;2.67;;;;;;;19.79;71.31;99932.13;5045617;28;20104;-32
2023/11/13 09:39:13;;;;;;;5.60;2.30;;;;;;;19.79;71.02;99927.47;5048304;28;20036;-34
2023/11/13 09:41:45;;;;;;;11.02;2.60;;;;;;;19.78;71.26;99923.09;5046321;28;20397;-31
2023/11/13 09:44:11;;;;;;;23.48;3.00;;;;;;;19.79;71.15;99926.63;5042605;28;20092;-33
2023/11/13 09:46:38;;;;;;;10.77;2.63;;;;;;;19.78;71.30;99916.75;5041958;28;20527;-34
2023/11/13 09:49:10;;;;;;;20.08;2.90;;;;;;;19.79;71.48;99897.22;5044769;28;20025;-32
2023/11/13 09:51:37;;;;;;;7.00;2.28;;;;;;;19.83;71.16;99901.00;5051054;28;20028;-32
2023/11/13 09:54:03;;;;;;;5.95;2.08;;;;;;;19.83;71.38;99883.66;5057108;28;20369;-32
2023/11/13 09:56:30;;;;;;;7.30;2.20;;;;;;;19.84;71.12;99879.78;5056565;28;20074;-33
2023/11/13 09:58:57;;;;;;;9.27;2.50;;;;;;;19.84;71.26;99866.88;5044668;28;20094;-33
2023/11/13 10:01:23;;;;;;;2.67;1.65;;;;;;;19.84;71.08;99875.13;5033916;28;20025;-33
2023/11/13 10:03:48;;;;;;;4.22;2.13;;;;;;;19.83;70.96;99862.50;5051018;28;20026;-35
2023/11/13 10:06:14;;;;;;;3.15;1.80;;;;;;;19.83;71.36;99875.41;5031484;28;20029;-33
2023/11/13 10:08:41;;;;;;;6.10;2.10;;;;;;;19.82;70.74;99860.84;5032058;28;20075;-33
2023/11/13 10:11:08;;;;;;;3.80;1.90;;;;;;;19.84;70.37;99852.31;5037018;28;20120;-32
2023/11/13 10:13:34;;;;;;;3.67;1.95;;;;;;;19.83;70.67;99835.00;5028547;28;20033;-34
2023/11/13 10:16:16;;;;;;;4.35;1.92;;;;;;;19.84;70.58;99819.31;5041642;28;20530;-34
2023/11/13 10:18:43;;;;;;;4.70;1.98;;;;;;;19.86;70.51;99811.56;5041440;28;20032;-35
2023/11/13 10:21:08;;;;;;;4.63;1.63;;;;;;;19.90;70.34;99795.25;5041260;28;20029;-32
2023/11/13 10:23:34;;;;;;;10.27;1.83;;;;;;;19.91;70.28;99797.69;5037975;28;20037;-33
2023/11/13 10:26:00;;;;;;;4.20;1.98;;;;;;;19.93;70.83;99786.38;5051799;28;20532;-35
2023/11/13 10:28:40;;;;;;;2.45;1.67;;;;;;;19.93;70.69;99784.44;5044441;28;20100;-31
2023/11/13 10:31:12;;;;;;;2.90;1.92;;;;;;;19.94;70.40;99769.56;5048736;28;20544;-33
2023/11/13 10:33:38;;;;;;;6.45;1.75;;;;;;;19.96;70.46;99770.06;5048992;28;20025;-34
2023/11/13 10:36:17;;;;;;;2.72;1.60;;;;;;;19.96;70.18;99755.50;5043672;28;20804;-34
2023/11/13 10:38:45;;;;;;;3.83;1.70;;;;;;;19.97;70.22;99744.16;5035308;28;20037;-33
2023/11/13 10:41:12;;;;;;;3.55;1.70;;;;;;;20.00;70.18;99753.72;5039696;28;20197;-33
2023/11/13 10:43:39;;;;;;;2.33;1.70;;;;;;;20.01;70.15;99760.84;5044756;28;20040;-33
2023/11/13 10:46:06;;;;;;;3.05;1.92;;;;;;;20.05;70.17;99748.09;5050266;28;20532;-33
2023/11/13 10:48:38;;;;;;;3.78;1.70;;;;;;;20.10;70.18;99742.47;5044448;28;20024;-32
2023/11/13 10:51:05;;;;;;;2.63;1.50;;;;;;;20.15;70.19;99722.25;5043120;28;20465;-33
2023/11/13 10:53:32;;;;;;;2.97;1.70;;;;;;;20.17;70.36;99709.81;5038713;28;20029;-33
2023/11/13 10:55:58;;;;;;;24.48;2.45;;;;;;;20.22;70.24;99702.53;5045217;28;20602;-32
2023/11/13 10:58:24;;;;;;;3.92;1.60;;;;;;;20.24;70.32;99684.56;5039874;28;20041;-32
2023/11/13 11:00:51;;;;;;;4.65;2.05;;;;;;;20.28;70.29;99674.56;5046544;28;20091;-33
2023/11/13 11:03:18;;;;;;;3.45;1.60;;;;;;;20.30;70.54;99655.75;5076438;28;20032;-34
2023/11/13 11:05:48;;;;;;;4.55;1.55;;;;;;;20.32;70.33;99656.25;5038600;28;20024;-33
2023/11/13 11:08:13;;;;;;;2.28;1.40;;;;;;;20.33;70.34;99635.06;5040299;28;20441;-33
2023/11/13 11:10:39;;;;;;;2.30;1.50;;;;;;;20.35;70.41;99635.56;5038681;28;20480;-31
2023/11/13 11:13:10;;;;;;;2.33;1.55;;;;;;;20.35;70.05;99611.59;5037841;28;20029;-32
2023/11/13 11:16:01;;;;;;;2.95;1.55;;;;;;;20.35;69.88;99617.13;5033145;28;20446;-33
2023/11/13 11:18:39;;;;;;;14.00;1.73;;;;;;;20.38;70.13;99604.66;5030216;28;20484;-33
2023/11/13 11:21:08;;;;;;;7.55;1.63;;;;;;;20.37;70.15;99605.78;5031862;28;20065;-32
2023/11/13 11:23:52;;;;;;;4.80;1.63;;;;;;;20.33;70.24;99599.28;5044453;28;20033;-32